Time;durP1;ratioP1;P1;durP2;ratioP2;P2;SDS_P1;SDS_P2;PMS_P1;PMS_P2;Temp;Humidity;BMP_temperature;BMP_pressure;BME280_temperature;BME280_humidity;BME280_pressure;Samples;Min_cycle;Max_cycle;Signal;HPM_P1;HPM_P2
2022/05/24 00:00:12;;;;;;;4.20;3.80;;;17.60;99.90;;;;;;5053540;28;20444;-63
2022/05/24 00:02:39;;;;;;;4.40;3.40;;;17.60;99.90;;;;;;5053070;28;20463;-63
2022/05/24 00:05:09;;;;;;;3.43;3.13;;;17.60;99.90;;;;;;5053464;28;20443;-63
2022/05/24 00:07:37;;;;;;;5.10;3.57;;;17.60;99.90;;;;;;5053189;28;20545;-63
2022/05/24 00:10:05;;;;;;;4.63;3.23;;;17.60;99.90;;;;;;5052727;28;20459;-63
2022/05/24 00:12:32;;;;;;;4.57;3.43;;;17.60;99.90;;;;;;5053110;28;20444;-62
2022/05/24 00:17:46;;;;;;;7.47;4.27;;;17.50;99.90;;;;;;5052784;28;20788;-63
2022/05/24 00:20:16;;;;;;;6.90;4.53;;;17.40;99.90;;;;;;5052905;28;20450;-62
2022/05/24 00:22:43;;;;;;;5.83;4.57;;;17.30;99.90;;;;;;5052363;28;20447;-63
2022/05/24 00:25:10;;;;;;;4.03;3.70;;;17.20;99.90;;;;;;5054538;28;20440;-64
2022/05/24 00:27:38;;;;;;;4.37;4.07;;;17.00;99.90;;;;;;5056799;28;20749;-63
2022/05/24 00:30:06;;;;;;;7.50;4.63;;;16.60;99.90;;;;;;5057404;28;20428;-64
2022/05/24 00:32:33;;;;;;;7.00;6.37;;;16.20;99.90;;;;;;5057302;28;20452;-63
2022/05/24 00:35:00;;;;;;;8.00;7.20;;;16.00;99.90;;;;;;5056776;28;20486;-65
2022/05/24 00:37:29;;;;;;;9.10;8.27;;;15.80;99.90;;;;;;5056556;28;20444;-65
2022/05/24 00:39:56;;;;;;;10.53;9.53;;;15.60;99.90;;;;;;5056759;28;20459;-65
2022/05/24 00:42:28;;;;;;;11.00;9.97;;;15.50;99.90;;;;;;5056754;28;20448;-64
2022/05/24 00:45:02;;;;;;;12.07;9.93;;;15.40;99.90;;;;;;5056668;28;20440;-64
2022/05/24 00:47:34;;;;;;;11.53;10.47;;;15.30;99.90;;;;;;5056331;28;20837;-64
2022/05/24 00:50:05;;;;;;;11.90;10.80;;;15.30;99.90;;;;;;5056528;28;20458;-65
2022/05/24 00:52:43;;;;;;;19.53;13.73;;;15.20;99.90;;;;;;5056432;28;20440;-63
2022/05/24 00:55:12;;;;;;;15.03;13.53;;;15.20;99.90;;;;;;5055980;28;20475;-63
2022/05/24 00:57:48;;;;;;;15.40;13.80;;;15.10;99.90;;;;;;5055908;28;20448;-63
2022/05/24 01:00:17;;;;;;;13.90;12.40;;;15.00;99.90;;;;;;5056086;28;20531;-63
2022/05/24 01:02:45;;;;;;;14.80;13.23;;;15.00;99.90;;;;;;5055964;28;20459;-63
2022/05/24 01:05:16;;;;;;;12.83;11.67;;;14.90;99.90;;;;;;5056418;28;20440;-63
2022/05/24 01:07:44;;;;;;;13.03;11.83;;;14.90;99.90;;;;;;5056317;28;20447;-63
2022/05/24 01:10:16;;;;;;;12.80;11.50;;;14.90;99.90;;;;;;5055883;28;20459;-63
2022/05/24 01:12:47;;;;;;;12.23;11.13;;;14.80;99.90;;;;;;5056242;28;20459;-63
2022/05/24 01:15:17;;;;;;;16.23;12.00;;;14.80;99.90;;;;;;5056042;28;20494;-63
2022/05/24 01:17:46;;;;;;;14.43;11.93;;;14.80;99.90;;;;;;5056084;28;20452;-63
2022/05/24 01:20:14;;;;;;;13.43;12.20;;;14.80;99.90;;;;;;5056189;28;20849;-63
2022/05/24 01:23:09;;;;;;;12.60;11.30;;;14.70;99.90;;;;;;5055989;28;20525;-64
2022/05/24 01:25:45;;;;;;;13.13;11.83;;;14.70;99.90;;;;;;5056021;28;20792;-63
2022/05/24 01:28:17;;;;;;;12.63;11.33;;;14.70;99.90;;;;;;5057403;28;20487;-63
2022/05/24 01:30:45;;;;;;;11.73;10.47;;;14.70;99.90;;;;;;5055681;28;20447;-63
2022/05/24 01:36:11;;;;;;;16.20;11.60;;;14.70;99.90;;;;;;5017137;28;20500;-64
2022/05/24 01:38:40;;;;;;;11.17;9.97;;;14.70;99.90;;;;;;5057228;28;20466;-63
2022/05/24 01:41:08;;;;;;;12.47;9.43;;;14.60;99.90;;;;;;5055614;28;20467;-63
2022/05/24 01:43:39;;;;;;;8.80;7.90;;;14.60;99.90;;;;;;5055518;28;20448;-62
2022/05/24 01:46:10;;;;;;;8.70;8.00;;;14.60;99.90;;;;;;5055346;28;20815;-63
2022/05/24 01:48:41;;;;;;;8.47;7.67;;;14.60;99.90;;;;;;5055138;28;20470;-62
2022/05/24 01:51:11;;;;;;;8.73;7.93;;;14.60;99.90;;;;;;5055326;28;20904;-63
2022/05/24 01:53:42;;;;;;;8.23;7.53;;;14.60;99.90;;;;;;5055389;28;20443;-63
2022/05/24 01:56:15;;;;;;;8.33;7.50;;;14.60;99.90;;;;;;5055007;28;20471;-63
2022/05/24 01:58:49;;;;;;;8.90;8.00;;;14.60;99.90;;;;;;5054903;28;20975;-62
2022/05/24 02:01:24;;;;;;;8.17;7.37;;;14.60;99.90;;;;;;5055554;28;20439;-64
2022/05/24 02:03:52;;;;;;;6.67;6.07;;;14.60;99.90;;;;;;5055240;28;20424;-63
2022/05/24 02:06:22;;;;;;;6.00;5.50;;;14.60;99.90;;;;;;5055388;28;20795;-63
2022/05/24 02:08:49;;;;;;;6.47;5.97;;;14.60;99.90;;;;;;5055030;28;20479;-62
2022/05/24 02:11:18;;;;;;;6.63;5.60;;;14.60;99.90;;;;;;5054922;28;20460;-62
2022/05/24 02:13:49;;;;;;;6.03;5.43;;;14.60;99.90;;;;;;5055090;28;20463;-63
2022/05/24 02:16:22;;;;;;;10.50;5.30;;;14.60;99.90;;;;;;5054946;28;20477;-61
2022/05/24 02:18:52;;;;;;;5.37;4.97;;;14.60;99.90;;;;;;5054861;28;20503;-62
2022/05/24 02:21:19;;;;;;;5.00;4.60;;;14.60;99.90;;;;;;5058651;28;20471;-62
2022/05/24 02:23:49;;;;;;;5.30;4.70;;;14.50;99.90;;;;;;5063748;28;20444;-63
2022/05/24 02:26:18;;;;;;;5.20;4.70;;;14.60;99.90;;;;;;5058467;28;20466;-62
2022/05/24 02:28:51;;;;;;;5.00;4.50;;;14.60;99.90;;;;;;5054182;28;20484;-63
2022/05/24 02:31:19;;;;;;;3.87;3.57;;;14.60;99.90;;;;;;5054208;28;20900;-63
2022/05/24 02:33:47;;;;;;;3.40;3.10;;;14.60;99.90;;;;;;5054734;28;20444;-62
2022/05/24 02:36:15;;;;;;;3.47;3.17;;;14.60;99.90;;;;;;5054329;28;20551;-63
2022/05/24 02:38:43;;;;;;;2.90;2.70;;;14.60;99.90;;;;;;5054582;28;20475;-62
2022/05/24 02:43:57;;;;;;;2.50;2.30;;;14.60;99.90;;;;;;5053930;28;20764;-63
2022/05/24 02:46:24;;;;;;;2.80;1.97;;;14.60;99.90;;;;;;5054530;28;20505;-62
2022/05/24 02:48:52;;;;;;;2.83;2.57;;;14.60;99.90;;;;;;5055946;28;20478;-63
2022/05/24 02:51:19;;;;;;;3.50;2.60;;;14.50;99.90;;;;;;5056093;28;20451;-63
2022/05/24 02:53:46;;;;;;;2.40;2.20;;;14.50;99.90;;;;;;5062050;28;20471;-63
2022/05/24 02:56:14;;;;;;;1.90;1.70;;;14.50;99.90;;;;;;5063379;28;20475;-64
2022/05/24 02:58:42;;;;;;;1.50;1.40;;;14.50;99.90;;;;;;5065893;28;20464;-63
2022/05/24 03:01:18;;;;;;;1.53;1.43;;;14.50;99.90;;;;;;5061924;28;20440;-63
2022/05/24 03:03:45;;;;;;;2.17;1.50;;;14.40;99.90;;;;;;5062279;28;20466;-63
2022/05/24 03:06:12;;;;;;;2.33;2.13;;;14.40;99.90;;;;;;5057749;28;20440;-63
2022/05/24 03:11:24;;;;;;;1.80;1.60;;;14.20;99.90;;;;;;5055361;28;20843;-63
2022/05/24 03:16:37;;;;;;;3.37;2.47;;;14.10;99.90;;;;;;5053828;28;20420;-62
2022/05/24 03:19:05;;;;;;;2.53;2.33;;;14.00;99.90;;;;;;5054094;28;20452;-63
2022/05/24 03:21:32;;;;;;;4.67;2.77;;;14.00;99.90;;;;;;5053958;28;20467;-63
2022/05/24 03:23:59;;;;;;;3.70;3.40;;;14.00;99.90;;;;;;5053371;28;20444;-63
2022/05/24 03:26:27;;;;;;;4.30;3.27;;;13.90;99.90;;;;;;5053424;28;20498;-63
2022/05/24 03:28:54;;;;;;;3.00;2.70;;;13.90;99.90;;;;;;5053206;28;20987;-63
2022/05/24 03:31:21;;;;;;;3.70;3.40;;;13.90;99.90;;;;;;5053427;28;20454;-63
2022/05/24 03:33:50;;;;;;;4.40;3.70;;;13.90;99.90;;;;;;5053331;28;20451;-63
2022/05/24 03:36:19;;;;;;;4.10;3.37;;;13.90;99.90;;;;;;5053464;28;20483;-63
2022/05/24 03:38:46;;;;;;;4.20;3.73;;;14.00;99.90;;;;;;5053521;28;20475;-63
2022/05/24 03:41:13;;;;;;;4.40;4.00;;;14.00;99.90;;;;;;5053525;28;20447;-63
2022/05/24 03:43:41;;;;;;;4.20;3.80;;;14.10;99.90;;;;;;5053391;28;20453;-62
2022/05/24 03:46:11;;;;;;;4.30;3.90;;;14.10;99.90;;;;;;5054076;28;20443;-62
2022/05/24 03:48:39;;;;;;;4.37;3.97;;;14.20;99.90;;;;;;5055194;28;20459;-63
2022/05/24 03:51:07;;;;;;;4.23;3.80;;;14.20;99.90;;;;;;5053186;28;20452;-63
2022/05/24 03:53:35;;;;;;;4.67;4.20;;;14.30;99.90;;;;;;5053173;28;20448;-63
2022/05/24 03:56:02;;;;;;;5.50;4.50;;;14.30;99.90;;;;;;5053079;28;20480;-63
2022/05/24 03:58:30;;;;;;;4.77;4.37;;;14.30;99.90;;;;;;5053082;28;20478;-63
2022/05/24 04:00:58;;;;;;;5.50;4.87;;;14.30;99.90;;;;;;5052759;28;20463;-63
2022/05/24 04:03:25;;;;;;;4.77;4.37;;;14.30;99.90;;;;;;5052839;28;20444;-63
2022/05/24 04:05:52;;;;;;;4.93;4.50;;;14.30;99.90;;;;;;5052710;28;20443;-62
2022/05/24 04:09:46;;;;;;;7.30;6.03;;;14.30;99.90;;;;;;5091160;27;20596;-63
2022/05/24 04:12:13;;;;;;;6.23;5.23;;;14.30;99.90;;;;;;5091074;28;20447;-63
2022/05/24 04:14:40;;;;;;;6.13;5.53;;;14.40;99.90;;;;;;5091371;28;20446;-63
2022/05/24 04:17:07;;;;;;;5.33;4.83;;;14.40;99.90;;;;;;5091111;28;20439;-63
2022/05/24 04:19:35;;;;;;;6.17;4.57;;;14.40;99.90;;;;;;5090944;28;20474;-63
2022/05/24 04:22:02;;;;;;;6.77;6.17;;;14.40;99.90;;;;;;5091074;28;20938;-63
2022/05/24 04:24:29;;;;;;;6.70;5.77;;;14.40;99.90;;;;;;5091282;28;20494;-63
2022/05/24 04:26:57;;;;;;;6.00;5.50;;;14.40;99.90;;;;;;5091071;28;20450;-63
2022/05/24 04:29:24;;;;;;;6.73;5.97;;;14.50;99.90;;;;;;5090723;28;20482;-64
2022/05/24 04:31:51;;;;;;;6.43;5.83;;;14.60;99.90;;;;;;5090777;28;20442;-63
2022/05/24 04:34:19;;;;;;;5.83;5.10;;;14.60;99.90;;;;;;5093042;28;20474;-64
2022/05/24 04:36:46;;;;;;;6.20;5.60;;;14.70;99.90;;;;;;5097162;28;20442;-63
2022/05/24 04:39:13;;;;;;;5.67;5.07;;;14.70;99.90;;;;;;5091980;28;20454;-66
2022/05/24 04:44:26;;;;;;;8.30;7.20;;;14.90;99.90;;;;;;5102649;28;20409;-64
2022/05/24 04:47:08;;;;;;;7.77;6.33;;;14.90;99.90;;;;;;5099463;28;20457;-63
2022/05/24 04:49:36;;;;;;;6.93;6.30;;;15.00;99.90;;;;;;5094826;28;20482;-64
2022/05/24 04:52:04;;;;;;;8.93;6.40;;;15.10;99.90;;;;;;5093562;28;20450;-64
2022/05/24 04:54:31;;;;;;;7.27;6.60;;;15.20;99.90;;;;;;5092791;28;20442;-62
2022/05/24 04:56:58;;;;;;;7.43;6.73;;;15.30;99.90;;;;;;5091889;28;20826;-64
2022/05/24 04:59:27;;;;;;;6.60;5.40;;;15.40;99.90;;;;;;5090743;28;20458;-64
2022/05/24 05:01:54;;;;;;;6.60;5.43;;;15.50;99.90;;;;;;5091418;28;20449;-63
2022/05/24 05:04:23;;;;;;;6.43;5.83;;;15.50;99.90;;;;;;5077805;28;20545;-62
2022/05/24 05:06:50;;;;;;;6.03;5.43;;;15.60;99.90;;;;;;5081279;28;20459;-64
2022/05/24 05:09:18;;;;;;;8.70;6.13;;;15.60;99.90;;;;;;5071747;28;20978;-63
2022/05/24 05:11:45;;;;;;;6.43;5.60;;;15.70;99.90;;;;;;5078252;28;20455;-63
2022/05/24 05:14:13;;;;;;;5.97;5.47;;;15.80;99.90;;;;;;5077695;28;20842;-62
2022/05/24 05:16:42;;;;;;;6.90;5.83;;;15.80;99.90;;;;;;5070603;28;20919;-62
2022/05/24 05:19:12;;;;;;;9.00;5.57;;;15.70;99.90;;;;;;5072448;28;20487;-63
2022/05/24 05:21:41;;;;;;;9.47;7.13;;;15.70;99.90;;;;;;5076119;28;20529;-62
2022/05/24 05:24:09;;;;;;;7.77;6.97;;;15.70;99.90;;;;;;5076366;28;20831;-62
2022/05/24 05:26:37;;;;;;;8.60;7.37;;;15.60;99.90;;;;;;5076654;28;20558;-62
2022/05/24 05:29:04;;;;;;;7.10;6.50;;;15.50;99.90;;;;;;5076130;28;20562;-63
2022/05/24 05:31:31;;;;;;;9.30;8.30;;;15.50;99.90;;;;;;5068377;28;20911;-62
2022/05/24 05:34:01;;;;;;;9.30;8.40;;;15.60;99.90;;;;;;5071915;28;20836;-62
2022/05/24 05:36:30;;;;;;;9.77;8.83;;;15.70;99.90;;;;;;5076136;28;20497;-62
2022/05/24 05:38:58;;;;;;;9.83;8.83;;;15.70;99.90;;;;;;5075910;28;20535;-63
2022/05/24 05:41:27;;;;;;;10.37;9.37;;;15.80;99.90;;;;;;5075722;28;20443;-62
2022/05/24 05:43:55;;;;;;;11.47;10.27;;;15.90;99.90;;;;;;5075893;28;20443;-62
2022/05/24 05:46:22;;;;;;;10.80;9.50;;;16.00;99.90;;;;;;5076737;28;20465;-63
2022/05/24 05:48:50;;;;;;;10.47;9.30;;;16.30;99.90;;;;;;5076197;28;20581;-61
2022/05/24 05:51:19;;;;;;;14.60;9.00;;;16.80;99.90;;;;;;5075532;28;20899;-62
2022/05/24 05:53:47;;;;;;;10.43;9.43;;;17.20;99.90;;;;;;5080204;28;20471;-62
2022/05/24 05:56:17;;;;;;;10.30;8.63;;;17.60;99.90;;;;;;5079781;28;20542;-63
2022/05/24 05:58:44;;;;;;;10.43;9.43;;;17.90;99.90;;;;;;5058641;28;20515;-66
2022/05/24 06:01:16;;;;;;;10.37;9.30;;;18.20;99.90;;;;;;5071425;28;20891;-65
2022/05/24 06:03:43;;;;;;;16.37;10.83;;;18.50;99.90;;;;;;5077727;28;20450;-65
2022/05/24 06:06:16;;;;;;;11.93;10.67;;;18.80;99.90;;;;;;5075895;28;20443;-64
2022/05/24 06:08:45;;;;;;;10.77;9.77;;;19.00;99.90;;;;;;5074215;28;20493;-64
2022/05/24 06:11:12;;;;;;;11.17;10.17;;;19.10;99.00;;;;;;5075430;28;20447;-68
2022/05/24 06:13:39;;;;;;;13.20;11.00;;;19.10;98.10;;;;;;5075231;28;20466;-66
2022/05/24 06:16:06;;;;;;;13.13;11.73;;;18.90;97.80;;;;;;5074814;28;20454;-63
2022/05/24 06:18:33;;;;;;;13.20;12.10;;;18.70;97.80;;;;;;5073053;28;20458;-64
2022/05/24 06:21:01;;;;;;;12.93;11.73;;;18.60;97.90;;;;;;5074623;28;20454;-63
2022/05/24 06:23:28;;;;;;;11.47;10.37;;;18.50;98.10;;;;;;5074706;28;20953;-65
2022/05/24 06:25:56;;;;;;;13.00;11.80;;;18.40;98.20;;;;;;5074767;28;20473;-61
2022/05/24 06:28:23;;;;;;;12.73;11.60;;;18.30;98.10;;;;;;5073980;28;20513;-64
2022/05/24 06:30:50;;;;;;;14.30;11.57;;;18.20;97.90;;;;;;5074453;28;20455;-64
2022/05/24 06:33:17;;;;;;;12.43;11.33;;;18.20;98.10;;;;;;5074410;28;20450;-62
2022/05/24 06:35:45;;;;;;;13.43;11.63;;;18.20;98.20;;;;;;5077929;28;20457;-64
2022/05/24 06:38:12;;;;;;;13.07;11.87;;;18.20;98.20;;;;;;5075203;28;20467;-65
2022/05/24 06:40:40;;;;;;;12.97;11.83;;;18.20;98.20;;;;;;5074853;28;20455;-63
2022/05/24 06:43:09;;;;;;;11.93;10.90;;;18.20;98.20;;;;;;5074343;28;20474;-65
2022/05/24 06:45:36;;;;;;;12.17;10.97;;;18.20;98.00;;;;;;5074310;28;20447;-64
2022/05/24 06:48:04;;;;;;;11.13;10.10;;;18.10;98.00;;;;;;5074309;28;20482;-65
2022/05/24 06:50:31;;;;;;;8.60;7.90;;;18.00;98.20;;;;;;5073721;28;20490;-64
2022/05/24 06:52:58;;;;;;;9.38;8.57;;;17.90;98.20;;;;;;5074203;28;20547;-64
2022/05/24 06:55:25;;;;;;;9.20;8.33;;;17.70;98.20;;;;;;5074358;28;20209;-65
2022/05/24 06:57:53;;;;;;;9.20;7.77;;;17.60;98.50;;;;;;5074424;28;20499;-68
2022/05/24 07:03:09;;;;;;;9.80;8.90;;;17.40;98.90;;;;;;5073892;28;20411;-64
2022/05/24 07:05:36;;;;;;;12.17;8.03;;;17.30;99.30;;;;;;5074033;28;20446;-64
2022/05/24 07:08:04;;;;;;;9.87;8.77;;;17.20;99.60;;;;;;5072681;28;20483;-63
2022/05/24 07:10:33;;;;;;;9.30;8.30;;;17.20;99.90;;;;;;5073501;28;21001;-64
2022/05/24 07:13:02;;;;;;;10.00;9.10;;;17.30;99.90;;;;;;5073913;28;20935;-65
2022/05/24 07:15:31;;;;;;;10.80;9.90;;;17.30;99.90;;;;;;5072837;28;20458;-66
2022/05/24 07:17:58;;;;;;;9.80;8.90;;;17.40;99.90;;;;;;5073890;28;20463;-63
2022/05/24 07:20:26;;;;;;;9.43;8.50;;;17.40;99.90;;;;;;5074713;28;20458;-64
2022/05/24 07:22:54;;;;;;;10.73;9.40;;;17.50;99.90;;;;;;5074274;28;20500;-65
2022/05/24 07:25:22;;;;;;;9.80;8.57;;;17.50;99.90;;;;;;5072511;28;20556;-67
2022/05/24 07:27:49;;;;;;;10.20;9.30;;;17.50;99.90;;;;;;5074953;28;20478;-64
2022/05/24 07:30:16;;;;;;;10.13;9.23;;;17.60;99.90;;;;;;5074876;28;20475;-66
2022/05/24 07:32:45;;;;;;;11.43;10.23;;;17.60;99.90;;;;;;5074280;28;20538;-66
2022/05/24 07:35:13;;;;;;;12.60;11.33;;;17.60;99.90;;;;;;5086966;28;20478;-66
2022/05/24 07:37:40;;;;;;;11.07;10.17;;;17.70;99.90;;;;;;5085050;28;20977;-65
2022/05/24 07:45:52;;;;;;;12.73;11.47;;;17.80;99.50;;;;;;5082697;28;20453;-65
2022/05/24 07:48:21;;;;;;;10.73;9.73;;;17.80;99.80;;;;;;5083038;28;20533;-66
2022/05/24 07:50:48;;;;;;;12.27;10.70;;;17.70;99.80;;;;;;5082147;28;20564;-65
2022/05/24 07:53:16;;;;;;;11.80;9.40;;;17.70;99.90;;;;;;5084327;28;20451;-66
2022/05/24 07:55:44;;;;;;;12.20;11.00;;;17.70;99.90;;;;;;5079234;28;20512;-67
2022/05/24 07:58:11;;;;;;;11.40;10.40;;;17.60;99.90;;;;;;5077245;28;20471;-65
2022/05/24 08:00:39;;;;;;;13.37;9.77;;;17.60;99.90;;;;;;5073877;28;20831;-65
2022/05/24 08:03:07;;;;;;;11.73;10.00;;;17.50;99.90;;;;;;5074347;28;20447;-65
2022/05/24 08:05:36;;;;;;;9.00;8.20;;;17.30;99.90;;;;;;5073256;28;20454;-66
2022/05/24 08:08:04;;;;;;;8.63;7.80;;;17.10;99.90;;;;;;5078533;28;20479;-66
2022/05/24 08:10:32;;;;;;;9.30;8.40;;;16.80;99.90;;;;;;5074360;28;20527;-66
2022/05/24 08:12:59;;;;;;;10.30;9.30;;;16.40;99.90;;;;;;5073791;28;20462;-65
2022/05/24 08:15:29;;;;;;;11.97;10.87;;;16.00;99.90;;;;;;5074634;28;20455;-66
2022/05/24 08:17:57;;;;;;;12.00;10.93;;;15.80;99.90;;;;;;5075370;28;20919;-63
2022/05/24 08:20:25;;;;;;;13.53;12.23;;;15.70;99.90;;;;;;5074836;28;20927;-65
2022/05/24 08:22:53;;;;;;;13.60;12.20;;;15.50;99.90;;;;;;5075169;28;20447;-65
2022/05/24 08:25:20;;;;;;;16.37;14.77;;;15.40;99.90;;;;;;5072776;28;20484;-62
2022/05/24 08:27:47;;;;;;;16.97;15.20;;;15.30;99.90;;;;;;5073227;28;20456;-64
2022/05/24 08:30:17;;;;;;;16.83;15.10;;;15.30;99.90;;;;;;5073994;28;20494;-64
2022/05/24 08:32:46;;;;;;;15.70;14.30;;;15.30;99.90;;;;;;5072726;28;20477;-63
2022/05/24 08:35:15;;;;;;;17.57;15.77;;;15.30;99.90;;;;;;5073200;28;20477;-64
2022/05/24 08:37:43;;;;;;;15.73;14.13;;;15.40;99.90;;;;;;5072832;28;20829;-65
2022/05/24 08:40:15;;;;;;;16.60;14.90;;;15.40;99.90;;;;;;5072402;28;20450;-64
2022/05/24 08:42:58;;;;;;;14.33;13.00;;;15.40;99.90;;;;;;5073500;28;20442;-63
2022/05/24 08:48:26;;;;;;;9.50;8.60;;;15.20;99.90;;;;;;5072113;28;20489;-64
2022/05/24 08:50:57;;;;;;;13.63;8.93;;;15.10;99.90;;;;;;5073027;28;20466;-64
2022/05/24 08:53:29;;;;;;;7.57;6.90;;;14.90;99.90;;;;;;5072593;28;20439;-63
2022/05/24 08:55:59;;;;;;;7.47;6.73;;;14.70;99.90;;;;;;5075693;28;20430;-64
2022/05/24 08:58:35;;;;;;;8.97;7.60;;;14.50;99.90;;;;;;5077030;28;21022;-64
2022/05/24 09:01:02;;;;;;;8.90;8.00;;;14.40;99.90;;;;;;5070953;28;20466;-63
2022/05/24 09:03:30;;;;;;;9.60;7.03;;;14.30;99.90;;;;;;5077926;28;20443;-65
2022/05/24 09:06:04;;;;;;;7.77;7.07;;;14.30;99.90;;;;;;5079789;28;20450;-64
2022/05/24 09:08:38;;;;;;;8.07;7.27;;;14.30;99.90;;;;;;5078128;28;20960;-64
2022/05/24 09:11:13;;;;;;;7.07;6.40;;;14.20;99.90;;;;;;5077484;28;20464;-64
2022/05/24 09:14:07;;;;;;;8.13;7.33;;;14.10;99.90;;;;;;5076761;28;20441;-66
2022/05/24 09:16:47;;;;;;;6.13;5.50;;;14.10;99.90;;;;;;5076698;28;20431;-64
2022/05/24 09:19:20;;;;;;;7.60;6.80;;;13.90;99.90;;;;;;5078226;28;20865;-65
2022/05/24 09:21:51;;;;;;;7.87;6.90;;;13.80;99.90;;;;;;5079168;28;20423;-64
2022/05/24 09:24:26;;;;;;;8.00;7.40;;;13.80;99.90;;;;;;5077242;28;20976;-63
2022/05/24 09:27:11;;;;;;;9.50;7.50;;;13.80;99.90;;;;;;5078091;28;20431;-65
2022/05/24 09:29:57;;;;;;;8.37;7.50;;;13.80;99.90;;;;;;5077366;28;20490;-62
2022/05/24 09:32:32;;;;;;;6.13;5.53;;;13.80;99.90;;;;;;5076445;28;20454;-64
2022/05/24 09:35:13;;;;;;;6.83;6.20;;;13.80;99.90;;;;;;5077937;28;20786;-64
2022/05/24 09:37:42;;;;;;;8.20;7.50;;;13.80;99.90;;;;;;5076247;28;20435;-64
2022/05/24 09:40:18;;;;;;;8.20;7.40;;;13.90;99.90;;;;;;5076237;28;20812;-64
2022/05/24 09:42:46;;;;;;;7.10;6.10;;;14.00;99.90;;;;;;5075730;28;20915;-61
2022/05/24 09:45:16;;;;;;;7.83;7.03;;;14.10;99.90;;;;;;5075724;28;20499;-63
2022/05/24 09:47:54;;;;;;;8.03;7.17;;;14.20;99.90;;;;;;5075841;28;20445;-60
2022/05/24 09:50:25;;;;;;;7.63;6.90;;;14.40;99.90;;;;;;5075951;28;20475;-62
2022/05/24 09:53:09;;;;;;;8.27;7.57;;;14.60;99.90;;;;;;5075161;28;20435;-64
2022/05/24 09:55:43;;;;;;;8.43;7.63;;;15.00;99.90;;;;;;5075228;28;20459;-65
2022/05/24 09:58:31;;;;;;;8.87;8.17;;;15.10;99.90;;;;;;5076850;28;20463;-62
2022/05/24 10:01:01;;;;;;;7.97;7.17;;;15.20;99.90;;;;;;5076384;28;20428;-64
2022/05/24 10:03:32;;;;;;;9.27;8.17;;;15.20;99.90;;;;;;5077065;28;20439;-65
2022/05/24 10:06:15;;;;;;;8.00;7.10;;;15.10;99.90;;;;;;5075086;28;20451;-64
2022/05/24 10:08:45;;;;;;;10.20;8.67;;;15.10;99.90;;;;;;5075888;28;20482;-64
2022/05/24 10:11:39;;;;;;;8.63;7.93;;;15.20;99.90;;;;;;5080650;28;20464;-64
2022/05/24 10:14:20;;;;;;;9.10;8.20;;;15.50;99.90;;;;;;5068904;28;20454;-64
2022/05/24 10:16:54;;;;;;;9.33;8.43;;;15.70;99.90;;;;;;5078225;28;20427;-65
2022/05/24 10:19:39;;;;;;;8.90;8.10;;;16.20;99.90;;;;;;5077652;28;20466;-63
2022/05/24 10:22:16;;;;;;;8.57;7.73;;;16.70;99.90;;;;;;5076323;28;20441;-63
2022/05/24 10:24:58;;;;;;;8.67;7.77;;;17.10;99.90;;;;;;5076839;28;20936;-61
2022/05/24 10:27:33;;;;;;;8.27;7.33;;;17.30;99.90;;;;;;5079649;28;20424;-63
2022/05/24 10:30:07;;;;;;;8.10;7.40;;;17.40;99.90;;;;;;5077302;28;20463;-63
2022/05/24 10:39:11;;;;;;;8.20;7.40;;;18.00;99.90;;;;;;5077404;28;20458;-63
2022/05/24 10:41:50;;;;;;;7.50;6.80;;;18.40;99.80;;;;;;5075746;28;20790;-64
2022/05/24 10:44:23;;;;;;;7.73;7.03;;;18.80;97.90;;;;;;5076864;28;20436;-63
2022/05/24 10:47:00;;;;;;;8.47;7.57;;;19.10;96.60;;;;;;5077741;28;20807;-64
2022/05/24 10:49:34;;;;;;;7.20;6.60;;;19.20;95.40;;;;;;5076606;28;20474;-63
2022/05/24 10:52:07;;;;;;;9.93;8.20;;;19.10;95.00;;;;;;5076908;28;20855;-62
2022/05/24 10:54:44;;;;;;;10.00;7.50;;;19.20;94.60;;;;;;5077318;28;20439;-65
2022/05/24 10:57:16;;;;;;;9.43;7.03;;;19.20;93.70;;;;;;5076981;28;20438;-63
2022/05/24 11:00:01;;;;;;;7.50;6.70;;;19.10;93.00;;;;;;5075506;28;20459;-63
2022/05/24 11:02:40;;;;;;;7.20;6.60;;;18.90;92.90;;;;;;5076535;28;20435;-63
2022/05/24 11:05:26;;;;;;;7.40;6.70;;;18.60;92.70;;;;;;5075983;28;20431;-63
2022/05/24 11:08:05;;;;;;;5.73;5.23;;;18.40;92.90;;;;;;5077855;28;20862;-62
2022/05/24 11:10:35;;;;;;;4.60;3.80;;;18.50;93.20;;;;;;5080815;28;20507;-64
2022/05/24 11:13:08;;;;;;;4.40;4.00;;;18.70;92.20;;;;;;5084354;28;20436;-63
2022/05/24 11:15:41;;;;;;;4.83;4.33;;;18.70;90.60;;;;;;5088479;28;20443;-64
2022/05/24 11:18:15;;;;;;;5.23;4.03;;;18.80;90.00;;;;;;5084679;28;20459;-62
2022/05/24 11:20:49;;;;;;;4.50;4.10;;;18.90;88.80;;;;;;5086262;28;20434;-64
2022/05/24 11:23:22;;;;;;;4.30;3.50;;;19.00;86.90;;;;;;5082561;28;20439;-64
2022/05/24 11:25:54;;;;;;;4.40;4.03;;;18.90;83.30;;;;;;5082269;28;20467;-62
2022/05/24 11:28:26;;;;;;;3.83;3.47;;;18.70;83.90;;;;;;5081652;28;20470;-63
2022/05/24 11:30:55;;;;;;;4.20;3.90;;;18.80;84.40;;;;;;5080227;28;20463;-64
2022/05/24 11:33:43;;;;;;;4.53;3.40;;;18.80;82.60;;;;;;5080589;28;20537;-62
2022/05/24 11:36:38;;;;;;;3.17;2.87;;;18.90;82.80;;;;;;5080891;28;20431;-64
2022/05/24 11:39:24;;;;;;;3.67;2.70;;;18.90;80.30;;;;;;5079471;28;20474;-63
2022/05/24 11:42:06;;;;;;;3.40;3.10;;;19.20;79.10;;;;;;5079009;28;20435;-62
2022/05/24 11:44:37;;;;;;;6.63;3.00;;;19.40;76.80;;;;;;5076895;28;20463;-63
2022/05/24 11:47:05;;;;;;;2.97;2.63;;;19.40;75.20;;;;;;5075499;28;20439;-62
2022/05/24 11:50:08;;;;;;;2.47;1.97;;;19.30;74.60;;;;;;5075804;28;20447;-65
2022/05/24 11:53:01;;;;;;;4.30;2.60;;;19.10;73.30;;;;;;5013680;28;20480;-62
2022/05/24 11:56:11;;;;;;;4.90;2.37;;;18.80;73.60;;;;;;5010714;28;20434;-62
2022/05/24 11:58:53;;;;;;;3.40;1.90;;;18.80;73.60;;;;;;5069487;28;20470;-63
2022/05/24 12:01:50;;;;;;;1.83;1.50;;;19.20;71.10;;;;;;5063371;28;20435;-64
2022/05/24 12:10:46;;;;;;;2.70;1.57;;;19.20;62.60;;;;;;5072999;28;20608;-64
2022/05/24 12:13:33;;;;;;;4.47;1.93;;;20.00;60.80;;;;;;5073986;28;20458;-65
2022/05/24 12:16:03;;;;;;;3.70;1.67;;;20.80;58.00;;;;;;5074431;28;20436;-64
2022/05/24 12:18:42;;;;;;;3.30;2.00;;;21.60;55.80;;;;;;5073341;28;20463;-63
2022/05/24 12:21:10;;;;;;;4.57;1.50;;;21.90;54.00;;;;;;5073835;28;20431;-63
2022/05/24 12:23:41;;;;;;;2.50;1.77;;;22.10;52.70;;;;;;5082314;28;20947;-63
2022/05/24 12:26:12;;;;;;;2.10;1.73;;;22.20;52.80;;;;;;5084867;28;20440;-63
2022/05/24 12:28:52;;;;;;;3.05;1.70;;;22.10;52.30;;;;;;5081052;28;20543;-63
2022/05/24 12:31:33;;;;;;;3.20;1.73;;;21.80;52.80;;;;;;5089751;28;20204;-62
2022/05/24 12:34:02;;;;;;;3.40;1.87;;;21.40;53.30;;;;;;5088008;28;20434;-65
2022/05/24 12:36:43;;;;;;;2.23;1.60;;;21.30;54.00;;;;;;5074275;28;20439;-64
2022/05/24 12:39:17;;;;;;;2.83;1.73;;;21.50;53.90;;;;;;5087525;28;21077;-64
2022/05/24 12:41:46;;;;;;;2.33;2.20;;;21.60;53.10;;;;;;5090260;28;20423;-63
2022/05/24 12:44:17;;;;;;;2.23;1.60;;;21.40;53.10;;;;;;5090755;28;20447;-63
2022/05/24 12:46:51;;;;;;;5.63;3.60;;;21.00;53.20;;;;;;5074601;28;20436;-63
2022/05/24 12:49:21;;;;;;;2.37;2.10;;;20.70;53.90;;;;;;5060669;28;20488;-63
2022/05/24 12:51:49;;;;;;;3.27;2.40;;;20.50;54.70;;;;;;5058501;28;20460;-63
2022/05/24 12:54:27;;;;;;;2.00;1.70;;;20.40;54.80;;;;;;5058687;28;20448;-63
2022/05/24 12:57:00;;;;;;;2.00;1.80;;;20.40;54.20;;;;;;5058674;28;20497;-62
2022/05/24 12:59:37;;;;;;;3.93;1.50;;;20.50;54.30;;;;;;5058112;28;20834;-64
2022/05/24 13:02:33;;;;;;;2.90;1.80;;;20.50;54.20;;;;;;5057065;28;20439;-64
2022/05/24 13:05:09;;;;;;;2.73;1.70;;;20.40;54.30;;;;;;5034339;28;20810;-62
2022/05/24 13:07:42;;;;;;;1.93;1.73;;;20.40;54.50;;;;;;5057901;28;20458;-63
2022/05/24 13:10:23;;;;;;;2.53;1.60;;;20.40;54.50;;;;;;5056896;28;20439;-64
2022/05/24 13:12:52;;;;;;;2.57;1.80;;;20.40;54.50;;;;;;5056412;28;20436;-62
2022/05/24 13:15:22;;;;;;;3.60;2.00;;;20.40;54.20;;;;;;5056738;28;20447;-64
2022/05/24 13:17:54;;;;;;;4.67;1.80;;;20.30;53.90;;;;;;5057285;28;20479;-63
2022/05/24 13:20:33;;;;;;;3.73;1.50;;;20.30;53.50;;;;;;5056344;28;20439;-64
2022/05/24 13:23:04;;;;;;;1.60;1.50;;;20.20;53.50;;;;;;5056547;28;20815;-61
2022/05/24 13:25:47;;;;;;;2.30;1.47;;;20.10;53.40;;;;;;5056507;28;20443;-62
2022/05/24 13:28:31;;;;;;;4.57;1.27;;;20.00;52.90;;;;;;5056537;28;20471;-63
2022/05/24 13:33:46;;;;;;;2.30;1.23;;;19.80;52.50;;;;;;5056373;28;20415;-62
2022/05/24 13:36:26;;;;;;;1.90;1.17;;;19.70;52.30;;;;;;5057583;28;20864;-62
2022/05/24 13:39:09;;;;;;;5.60;1.60;;;19.70;52.50;;;;;;5056185;28;20558;-64
2022/05/24 13:41:40;;;;;;;4.60;2.10;;;19.80;52.40;;;;;;5054994;28;20444;-62
2022/05/24 13:44:11;;;;;;;2.80;2.17;;;19.70;52.40;;;;;;5055373;28;20448;-63
2022/05/24 13:46:55;;;;;;;2.37;1.60;;;19.70;52.70;;;;;;5055073;28;20896;-64
2022/05/24 13:49:43;;;;;;;2.07;1.70;;;19.50;52.90;;;;;;5055364;28;20489;-63